Knox City, MO

7:18 AM CDT on October 30, 2014 (GMT -0500)
Marion Co RII Fire Station | Change Station
CLOSE
Current Station
Personal Weather Station
Location: Philadelphia, MO
Elevation: 705 ft
Nearby Weather Stations
Active Advisory: Freeze Watch

Elev 705 ft 39.84 °N, 91.73 °W | Updated 9 seconds ago

Mostly Cloudy
Mostly Cloudy
40.5 °F
Feels Like 40 °F
N
2.0
Wind Variable Wind from SW
Gusts 5.0 mph

Today
High -- | Low -- °F
--% Chance of Precip.
Yesterday
High -- | Low -- °F
Precip. -- in
7:35 AM 6:07 PM
Waxing Crescent, 43% visible
Pressure 30.10 in
Visibility 10.0 miles
Clouds Mostly Cloudy 6500 ft
Overcast 9000 ft
Windchill 40 °F
Dew Point 36 °F
Humidity 85%
Rainfall 0.00 in
Snow Depth Not available.
UV 0 out of 12
Pollen .80 out of 12
Air Quality Not available.
Flu Activity Not available.
METAR KIRK 301155Z AUTO 16011KT 10SM -RA BKN065 OVC090 06/03 A3008 RMK AO2 RAB52 SLP192 P0000 60000 T00610033 10061 20011 56009

More Conditions Fewer Conditions

Pressure 30.10 in
Visibility 10.0 miles
Clouds Mostly Cloudy 6500 ft
Overcast 9000 ft
Windchill 40 °F
Dew Point 36 °F
Humidity 85%
Rainfall 0.00 in
Snow Depth Not available.
UV 0 out of 12
Pollen .80 out of 12
Air Quality Not available.
Flu Activity Not available.
METAR KIRK 301155Z AUTO 16011KT 10SM -RA BKN065 OVC090 06/03 A3008 RMK AO2 RAB52 SLP192 P0000 60000 T00610033 10061 20011 56009

More Conditions Fewer Conditions

10-Day Weather Forecast

Almanac

Astronomy

Oct. 30, 2014 Rise Set
Actual Time
Civil Twilight
Nautical Twilight
Astronomical Twilight
Moon
Length of Visible Light
Length of Day
Tomorrow will be .
, % of the Moon is Illuminated

Today's Extremes

State Highs State Lows

Community

WunderPhotos

Upload Photos

1,766,349 photos uploaded!

WunderBlogs® & News

Nearby

Air Quality

  Air Quality AQ Index Pollutant
Not available.

Snow Depth

Station Depth Elevation

Earthquake Activity

City Distance Mag. Time & Date
Minimum magnitude displayed is 2.5.

Coastal Water Temperatures

Place Temperature

Nearby Weather Stations